Time;durP1;ratioP1;P1;durP2;ratioP2;P2;SDS_P1;SDS_P2;PMS_P1;PMS_P2;Temp;Humidity;BMP_temperature;BMP_pressure;BME280_temperature;BME280_humidity;BME280_pressure;Samples;Min_cycle;Max_cycle;Signal;HPM_P1;HPM_P2
2022/10/09 00:00:35;;;;;;;;;;;;;;;11.00;66.87;102064.78;5063669;28;19980;-53
2022/10/09 00:03:01;;;;;;;;;;;;;;;10.98;66.81;102071.88;5066615;28;20015;-51
2022/10/09 00:05:26;;;;;;;;;;;;;;;10.94;66.78;102071.13;5064592;28;19924;-50
2022/10/09 00:07:52;;;;;;;;;;;;;;;10.88;67.09;102071.38;5064012;28;20098;-51
2022/10/09 00:10:17;;;;;;;;;;;;;;;10.85;67.07;102076.72;5066723;28;19981;-51
2022/10/09 00:12:43;;;;;;;;;;;;;;;10.81;67.12;102076.00;5066797;28;20361;-51
2022/10/09 00:15:09;;;;;;;;;;;;;;;10.80;67.18;102090.09;5070400;28;19963;-51
2022/10/09 00:17:34;;;;;;;;;;;;;;;10.80;67.16;102083.97;5065431;28;19912;-51
2022/10/09 00:19:59;;;;;;;;;;;;;;;10.81;67.20;102096.22;5063935;28;19927;-51
2022/10/09 00:22:25;;;;;;;;;;;;;;;10.81;67.31;102097.06;5064199;28;19966;-52
2022/10/09 00:24:50;;;;;;;;;;;;;;;10.84;67.21;102096.09;5065831;28;19924;-51
2022/10/09 00:27:15;;;;;;;;;;;;;;;10.82;67.23;102103.19;5070451;28;19924;-51
2022/10/09 00:29:41;;;;;;;;;;;;;;;10.77;67.53;102092.81;5068845;28;19920;-50
2022/10/09 00:32:06;;;;;;;;;;;;;;;10.79;67.40;102103.31;5069555;28;19921;-51
2022/10/09 00:34:31;;;;;;;;;;;;;;;10.78;67.49;102102.44;5069193;28;19935;-52
2022/10/09 00:36:56;;;;;;;;;;;;;;;10.81;67.34;102109.38;5069881;28;20308;-52
2022/10/09 00:39:22;;;;;;;;;;;;;;;10.81;67.46;102114.66;5070640;28;19951;-50
2022/10/09 00:41:47;;;;;;;;;;;;;;;10.82;67.29;102118.97;5068585;28;20393;-51
2022/10/09 00:44:31;;;;;;;;;;;;;;;10.82;67.24;102116.34;5068014;28;19920;-51
2022/10/09 00:46:56;;;;;;;;;;;;;;;10.79;67.54;102116.47;5069838;28;19916;-50
2022/10/09 00:49:29;;;;;;;;;;;;;;;10.78;67.56;102114.75;5070556;28;19916;-52
2022/10/09 00:51:57;;;;;;;;;;;;;;;10.81;67.23;102118.13;5072115;28;20497;-50
2022/10/09 00:54:25;;;;;;;;;;;;;;;10.83;67.35;102120.69;5063660;28;20023;-51
2022/10/09 00:56:50;;;;;;;;;;;;;;;10.88;67.01;102124.03;5067586;28;19924;-52
2022/10/09 00:59:16;;;;;;;;;;;;;;;10.87;67.08;102119.69;5068963;28;20793;-50
2022/10/09 01:01:42;;;;;;;;;;;;;;;10.84;67.26;102125.03;5071626;28;20397;-50
2022/10/09 01:04:07;;;;;;;;;;;;;;;10.85;67.12;102126.75;5065387;28;19924;-52
2022/10/09 01:06:32;;;;;;;;;;;;;;;10.84;67.31;102127.69;5067385;28;19932;-51
2022/10/09 01:09:06;;;;;;;;;;;;;;;10.83;67.29;102126.84;5066202;28;20002;-51
2022/10/09 01:11:31;;;;;;;;;;;;;;;10.82;67.47;102145.31;5070678;28;19933;-51
2022/10/09 01:14:02;;;;;;;;;;;;;;;10.83;67.40;102133.84;5067268;28;19916;-51
2022/10/09 01:16:31;;;;;;;;;;;;;;;10.85;67.27;102139.94;5068624;28;19963;-51
2022/10/09 01:19:02;;;;;;;;;;;;;;;10.83;67.26;102147.91;5066414;28;19921;-51
2022/10/09 01:21:34;;;;;;;;;;;;;;;10.81;67.46;102156.78;5071361;28;20011;-50
2022/10/09 01:24:02;;;;;;;;;;;;;;;10.79;67.49;102153.34;5063820;28;20668;-50
2022/10/09 01:26:37;;;;;;;;;;;;;;;10.79;67.52;102156.81;5064828;28;19920;-51
2022/10/09 01:29:08;;;;;;;;;;;;;;;10.82;67.34;102151.44;5067270;28;19921;-53
2022/10/09 01:31:36;;;;;;;;;;;;;;;10.85;67.53;102155.72;5065481;28;19916;-51
2022/10/09 01:34:02;;;;;;;;;;;;;;;10.87;67.31;102153.06;5067582;28;19928;-52
2022/10/09 01:36:29;;;;;;;;;;;;;;;10.88;67.34;102160.91;5069714;28;19962;-51
2022/10/09 01:39:00;;;;;;;;;;;;;;;10.92;67.29;102166.91;5064779;28;19940;-50
2022/10/09 01:41:26;;;;;;;;;;;;;;;10.93;67.23;102168.63;5063938;28;19920;-50
2022/10/09 01:43:51;;;;;;;;;;;;;;;10.94;67.24;102165.94;5057339;28;20388;-51
2022/10/09 01:46:19;;;;;;;;;;;;;;;10.94;67.13;102168.59;5046538;28;19951;-52
2022/10/09 01:48:51;;;;;;;;;;;;;;;10.94;67.08;102173.84;5061163;28;19927;-51
2022/10/09 01:51:20;;;;;;;;;;;;;;;10.94;67.18;102186.16;5058750;28;20335;-51
2022/10/09 01:53:47;;;;;;;;;;;;;;;10.93;67.21;102181.78;5059191;28;19934;-51
2022/10/09 01:56:19;;;;;;;;;;;;;;;10.92;67.05;102183.56;5064288;28;20304;-51
2022/10/09 01:58:51;;;;;;;;;;;;;;;10.91;67.21;102181.84;5066643;28;19920;-51
2022/10/09 02:01:20;;;;;;;;;;;;;;;10.89;67.24;102188.09;5065927;28;19917;-51
2022/10/09 02:03:47;;;;;;;;;;;;;;;10.87;67.26;102187.28;5064562;28;19916;-50
2022/10/09 02:06:14;;;;;;;;;;;;;;;10.83;67.11;102189.16;5068795;28;19917;-50
2022/10/09 02:08:40;;;;;;;;;;;;;;;10.81;67.30;102198.91;5058890;28;19931;-51
2022/10/09 02:11:06;;;;;;;;;;;;;;;10.76;67.18;102190.31;5064439;28;19931;-53
2022/10/09 02:13:33;;;;;;;;;;;;;;;10.75;67.29;102201.75;5070206;28;19917;-51
2022/10/09 02:15:58;;;;;;;;;;;;;;;10.74;67.39;102192.13;5057952;28;19920;-51
2022/10/09 02:18:39;;;;;;;;;;;;;;;10.72;67.36;102201.84;5054915;28;20851;-53
2022/10/09 02:21:24;;;;;;;;;;;;;;;10.70;67.26;102201.03;5061964;28;20330;-52
2022/10/09 02:23:50;;;;;;;;;;;;;;;10.67;67.37;102202.84;5062561;28;20882;-51
2022/10/09 02:26:16;;;;;;;;;;;;;;;10.65;67.21;102201.19;5063735;28;19971;-51
2022/10/09 02:28:42;;;;;;;;;;;;;;;10.63;67.20;102206.53;5067451;28;20306;-54
2022/10/09 02:31:10;;;;;;;;;;;;;;;10.62;67.32;102203.94;5064122;28;19931;-51
2022/10/09 02:33:36;;;;;;;;;;;;;;;10.59;67.30;102202.28;5061334;28;20011;-51
2022/10/09 02:36:01;;;;;;;;;;;;;;;10.58;67.31;102199.72;5059607;28;20063;-52
2022/10/09 02:38:27;;;;;;;;;;;;;;;10.57;67.37;102198.00;5061584;28;20831;-54
2022/10/09 02:40:55;;;;;;;;;;;;;;;10.55;67.10;102195.38;5060973;28;19942;-50
2022/10/09 02:43:21;;;;;;;;;;;;;;;10.55;67.10;102199.81;5065515;28;20376;-54
2022/10/09 02:45:46;;;;;;;;;;;;;;;10.55;67.12;102200.66;5064322;28;19927;-51
2022/10/09 02:48:11;;;;;;;;;;;;;;;10.52;67.22;102212.16;5063653;28;19924;-50
2022/10/09 02:50:37;;;;;;;;;;;;;;;10.51;67.05;102204.31;5061437;28;19924;-50
2022/10/09 02:53:02;;;;;;;;;;;;;;;10.50;67.04;102197.34;5064379;28;19931;-50
2022/10/09 02:55:27;;;;;;;;;;;;;;;10.49;67.19;102200.88;5066099;28;20475;-51
2022/10/09 02:57:52;;;;;;;;;;;;;;;10.47;67.14;102206.19;5065749;28;19928;-50
2022/10/09 03:00:18;;;;;;;;;;;;;;;10.47;67.28;102210.59;5068700;28;19954;-51
2022/10/09 03:02:43;;;;;;;;;;;;;;;10.45;67.35;102209.78;5069836;28;20315;-51
2022/10/09 03:05:09;;;;;;;;;;;;;;;10.45;67.15;102209.78;5069600;28;19928;-50
2022/10/09 03:07:34;;;;;;;;;;;;;;;10.44;67.34;102216.81;5063248;28;20032;-51
2022/10/09 03:10:00;;;;;;;;;;;;;;;10.42;67.34;102221.28;5068983;28;20312;-51
2022/10/09 03:12:25;;;;;;;;;;;;;;;10.42;67.32;102215.16;5069985;28;20157;-51
2022/10/09 03:14:50;;;;;;;;;;;;;;;10.40;67.29;102222.22;5068218;28;19927;-51
2022/10/09 03:17:16;;;;;;;;;;;;;;;10.37;67.37;102228.44;5064773;28;19967;-53
2022/10/09 03:19:41;;;;;;;;;;;;;;;10.35;67.25;102231.13;5069585;28;20385;-50
2022/10/09 03:22:06;;;;;;;;;;;;;;;10.33;67.36;102234.69;5067095;28;19920;-51
2022/10/09 03:24:32;;;;;;;;;;;;;;;10.32;67.21;102236.47;5064519;28;19924;-53
2022/10/09 03:26:57;;;;;;;;;;;;;;;10.29;67.23;102239.19;5067731;28;19920;-51
2022/10/09 03:29:22;;;;;;;;;;;;;;;10.29;67.42;102244.47;5065462;28;20831;-52
2022/10/09 03:31:48;;;;;;;;;;;;;;;10.27;67.21;102238.38;5068507;28;20194;-51
2022/10/09 03:34:13;;;;;;;;;;;;;;;10.25;67.26;102240.22;5064331;28;20247;-51
2022/10/09 03:36:38;;;;;;;;;;;;;;;10.25;67.15;102247.25;5066888;28;19932;-50
2022/10/09 03:39:03;;;;;;;;;;;;;;;10.23;67.46;102242.03;5062340;28;19925;-51
2022/10/09 03:41:29;;;;;;;;;;;;;;;10.25;67.29;102239.38;5064806;28;19936;-51
2022/10/09 03:43:54;;;;;;;;;;;;;;;10.24;67.20;102237.63;5065919;28;19924;-50
2022/10/09 03:46:19;;;;;;;;;;;;;;;10.24;67.20;102243.75;5065109;28;19928;-51
2022/10/09 03:48:45;;;;;;;;;;;;;;;10.23;67.11;102239.38;5066724;28;19967;-53
2022/10/09 03:51:10;;;;;;;;;;;;;;;10.23;67.08;102244.66;5061611;28;19951;-51
2022/10/09 03:53:35;;;;;;;;;;;;;;;10.22;67.10;102256.09;5061796;28;19974;-51
2022/10/09 03:56:01;;;;;;;;;;;;;;;10.21;67.21;102255.25;5062415;28;20307;-51
2022/10/09 03:58:26;;;;;;;;;;;;;;;10.19;67.33;102259.69;5065864;28;19933;-52
2022/10/09 04:00:51;;;;;;;;;;;;;;;10.18;67.32;102259.75;5065677;28;19925;-51
2022/10/09 04:03:17;;;;;;;;;;;;;;;10.15;67.25;102263.31;5065464;28;19924;-52
2022/10/09 04:05:42;;;;;;;;;;;;;;;10.13;67.33;102267.78;5066734;28;19916;-51
2022/10/09 04:08:08;;;;;;;;;;;;;;;10.11;67.30;102263.47;5068428;28;19997;-51
2022/10/09 04:10:33;;;;;;;;;;;;;;;10.09;67.20;102271.41;5070031;28;19920;-52
2022/10/09 04:12:59;;;;;;;;;;;;;;;10.07;67.40;102270.59;5066729;28;20063;-50
2022/10/09 04:15:24;;;;;;;;;;;;;;;10.05;67.31;102275.91;5068748;28;19920;-50
2022/10/09 04:17:49;;;;;;;;;;;;;;;10.04;67.16;102282.09;5074043;28;20385;-50
2022/10/09 04:20:15;;;;;;;;;;;;;;;10.02;67.35;102286.53;5068877;28;20508;-51
2022/10/09 04:22:40;;;;;;;;;;;;;;;9.99;67.38;102285.72;5072099;28;19924;-52
2022/10/09 04:25:05;;;;;;;;;;;;;;;9.97;67.36;102285.78;5066538;28;19921;-50
2022/10/09 04:27:31;;;;;;;;;;;;;;;9.96;67.29;102286.69;5071290;28;19966;-51
2022/10/09 04:29:56;;;;;;;;;;;;;;;9.96;67.28;102285.84;5071864;28;20381;-52
2022/10/09 04:32:21;;;;;;;;;;;;;;;9.95;67.18;102286.75;5069731;28;20342;-50
2022/10/09 04:34:47;;;;;;;;;;;;;;;9.92;67.38;102285.06;5069504;28;20067;-50
2022/10/09 04:37:12;;;;;;;;;;;;;;;9.91;67.14;102299.13;5066281;28;19924;-51
2022/10/09 04:39:37;;;;;;;;;;;;;;;9.89;67.18;102301.81;5066638;28;19957;-51
2022/10/09 04:42:03;;;;;;;;;;;;;;;9.88;67.20;102304.50;5065234;28;20014;-53
2022/10/09 04:44:28;;;;;;;;;;;;;;;9.87;67.14;102303.63;5067702;28;19925;-52
2022/10/09 04:46:53;;;;;;;;;;;;;;;9.85;67.06;102296.69;5068537;28;20491;-50
2022/10/09 04:49:19;;;;;;;;;;;;;;;9.83;67.14;102301.97;5066671;28;19916;-53
2022/10/09 04:51:44;;;;;;;;;;;;;;;9.81;67.05;102302.94;5069328;28;19926;-51
2022/10/09 04:54:10;;;;;;;;;;;;;;;9.79;67.04;102304.75;5066347;28;20017;-51
2022/10/09 04:56:35;;;;;;;;;;;;;;;9.76;67.11;102309.19;5063709;28;20503;-51
2022/10/09 04:59:01;;;;;;;;;;;;;;;9.75;67.03;102312.75;5064530;28;19981;-51
2022/10/09 05:01:26;;;;;;;;;;;;;;;9.73;67.08;102311.03;5065598;28;19925;-51
2022/10/09 05:03:52;;;;;;;;;;;;;;;9.70;66.99;102312.00;5067181;28;20011;-50
2022/10/09 05:06:18;;;;;;;;;;;;;;;9.69;67.13;102312.03;5070471;28;20366;-52
2022/10/09 05:08:44;;;;;;;;;;;;;;;9.68;67.02;102315.59;5072845;28;20381;-51
2022/10/09 05:11:11;;;;;;;;;;;;;;;9.65;67.04;102320.94;5064569;28;20175;-51
2022/10/09 05:13:38;;;;;;;;;;;;;;;9.64;67.17;102314.78;5067922;28;19916;-51
2022/10/09 05:16:06;;;;;;;;;;;;;;;9.63;67.25;102331.47;5065355;28;19986;-52
2022/10/09 05:18:32;;;;;;;;;;;;;;;9.62;67.11;102329.75;5068960;28;19928;-50
2022/10/09 05:20:57;;;;;;;;;;;;;;;9.61;67.10;102328.03;5066832;28;20003;-51
2022/10/09 05:23:23;;;;;;;;;;;;;;;9.59;67.18;102324.59;5068259;28;20257;-52
2022/10/09 05:25:58;;;;;;;;;;;;;;;9.58;67.13;102328.13;5066372;28;19978;-50
2022/10/09 05:28:24;;;;;;;;;;;;;;;9.56;67.17;102324.69;5069566;28;20440;-51
2022/10/09 05:30:49;;;;;;;;;;;;;;;9.56;67.07;102335.19;5064964;28;20022;-53
2022/10/09 05:33:14;;;;;;;;;;;;;;;9.55;66.96;102342.19;5072109;28;19927;-55
2022/10/09 05:35:40;;;;;;;;;;;;;;;9.55;67.28;102336.09;5068494;28;20355;-51
2022/10/09 05:38:05;;;;;;;;;;;;;;;9.54;67.10;102343.09;5068771;28;19926;-51
2022/10/09 05:40:30;;;;;;;;;;;;;;;9.53;67.28;102340.53;5061779;28;19924;-55
2022/10/09 05:42:56;;;;;;;;;;;;;;;9.55;67.33;102343.97;5068215;28;20374;-50
2022/10/09 05:45:21;;;;;;;;;;;;;;;9.54;67.10;102353.59;5068065;28;19971;-50
2022/10/09 05:47:46;;;;;;;;;;;;;;;9.55;67.23;102357.13;5066550;28;20018;-51
2022/10/09 05:50:12;;;;;;;;;;;;;;;9.55;67.08;102359.75;5066669;28;19916;-51
2022/10/09 05:52:38;;;;;;;;;;;;;;;9.55;67.25;102354.50;5067937;28;19926;-50
2022/10/09 05:55:04;;;;;;;;;;;;;;;9.54;67.33;102358.88;5065116;28;19947;-51
2022/10/09 05:57:29;;;;;;;;;;;;;;;9.54;67.35;102364.13;5065673;28;20397;-54
2022/10/09 05:59:55;;;;;;;;;;;;;;;9.56;67.32;102362.31;5067830;28;19921;-51
2022/10/09 06:02:20;;;;;;;;;;;;;;;9.56;67.39;102371.97;5065113;28;19920;-51
2022/10/09 06:04:45;;;;;;;;;;;;;;;9.59;67.36;102374.53;5063132;28;19924;-50
2022/10/09 06:07:11;;;;;;;;;;;;;;;9.60;67.25;102373.63;5065485;28;20022;-50
2022/10/09 06:09:36;;;;;;;;;;;;;;;9.62;67.41;102371.78;5065523;28;19920;-51
2022/10/09 06:12:01;;;;;;;;;;;;;;;9.64;67.41;102375.25;5059332;28;19917;-51
2022/10/09 06:14:26;;;;;;;;;;;;;;;9.66;67.31;102376.06;5066554;28;19928;-53
2022/10/09 06:16:52;;;;;;;;;;;;;;;9.68;67.35;102376.91;5062528;28;20304;-51
2022/10/09 06:19:18;;;;;;;;;;;;;;;9.70;67.36;102380.34;5063364;28;19925;-51
2022/10/09 06:21:44;;;;;;;;;;;;;;;9.73;67.15;102379.38;5068336;28;20498;-51
2022/10/09 06:24:15;;;;;;;;;;;;;;;9.73;67.25;102382.91;5071476;28;20274;-51
2022/10/09 06:26:40;;;;;;;;;;;;;;;9.75;67.34;102388.09;5063669;28;19924;-52
2022/10/09 06:29:05;;;;;;;;;;;;;;;9.76;67.40;102393.31;5067286;28;19929;-52
2022/10/09 06:31:31;;;;;;;;;;;;;;;9.77;67.39;102397.66;5063761;28;20344;-51
2022/10/09 06:34:00;;;;;;;;;;;;;;;9.82;67.38;102396.69;5068688;28;21783;-54
2022/10/09 06:36:26;;;;;;;;;;;;;;;9.84;67.41;102398.34;5069901;28;20348;-51
2022/10/09 06:38:52;;;;;;;;;;;;;;;9.86;67.40;102407.06;5069081;28;19932;-51
2022/10/09 06:41:24;;;;;;;;;;;;;;;9.86;67.29;102409.69;5065378;28;19916;-50
2022/10/09 06:43:54;;;;;;;;;;;;;;;9.88;67.42;102402.63;5067305;28;19924;-53
2022/10/09 06:46:21;;;;;;;;;;;;;;;9.90;67.52;102405.22;5064350;28;19924;-52
2022/10/09 06:48:46;;;;;;;;;;;;;;;9.92;67.53;102413.91;5068306;28;19943;-53
2022/10/09 06:51:12;;;;;;;;;;;;;;;9.95;67.51;102419.09;5068869;28;20408;-51
2022/10/09 06:53:42;;;;;;;;;;;;;;;9.97;67.36;102414.66;5068032;28;19916;-53
2022/10/09 06:56:09;;;;;;;;;;;;;;;9.98;67.67;102421.63;5065207;28;19970;-51
2022/10/09 06:58:35;;;;;;;;;;;;;;;10.02;67.58;102423.28;5067205;28;20234;-54
2022/10/09 07:01:10;;;;;;;;;;;;;;;10.05;67.76;102427.56;5068537;28;20011;-53
2022/10/09 07:03:36;;;;;;;;;;;;;;;10.09;67.59;102421.34;5059963;28;19952;-53
2022/10/09 07:06:08;;;;;;;;;;;;;;;10.12;67.58;102429.16;5059623;28;20460;-51
2022/10/09 07:08:33;;;;;;;;;;;;;;;10.15;67.59;102428.19;5062052;28;19936;-51
2022/10/09 07:10:58;;;;;;;;;;;;;;;10.17;67.67;102432.47;5065786;28;19920;-54
2022/10/09 07:13:23;;;;;;;;;;;;;;;10.20;67.66;102431.56;5065901;28;19972;-52
2022/10/09 07:15:49;;;;;;;;;;;;;;;10.23;67.79;102434.06;5067872;28;19920;-52
2022/10/09 07:18:15;;;;;;;;;;;;;;;10.28;67.77;102439.22;5067390;28;19931;-54
2022/10/09 07:20:40;;;;;;;;;;;;;;;10.30;67.91;102442.63;5067357;28;20439;-55
2022/10/09 07:23:05;;;;;;;;;;;;;;;10.33;67.71;102437.28;5066653;28;20416;-50
2022/10/09 07:25:30;;;;;;;;;;;;;;;10.35;67.71;102446.88;5066392;28;19944;-50
2022/10/09 07:27:56;;;;;;;;;;;;;;;10.37;67.92;102446.84;5066384;28;20316;-51
2022/10/09 07:30:21;;;;;;;;;;;;;;;10.37;67.95;102445.03;5068765;28;19925;-52
2022/10/09 07:32:46;;;;;;;;;;;;;;;10.40;67.98;102449.41;5061851;28;20652;-50
2022/10/09 07:35:12;;;;;;;;;;;;;;;10.43;67.95;102456.34;5055366;28;19954;-53
2022/10/09 07:37:37;;;;;;;;;;;;;;;10.44;68.07;102465.97;5063956;28;20530;-51
2022/10/09 07:40:02;;;;;;;;;;;;;;;10.48;68.12;102457.06;5063994;28;19935;-52
2022/10/09 07:42:28;;;;;;;;;;;;;;;10.49;68.12;102453.53;5051888;28;20011;-51
2022/10/09 07:44:53;;;;;;;;;;;;;;;10.51;67.99;102457.00;5065612;28;19974;-52
2022/10/09 07:47:18;;;;;;;;;;;;;;;10.54;68.13;102466.56;5058934;28;19929;-50
2022/10/09 07:49:44;;;;;;;;;;;;;;;10.55;68.23;102458.59;5060056;28;20448;-51
2022/10/09 07:52:09;;;;;;;;;;;;;;;10.56;68.18;102462.97;5064726;28;19924;-50
2022/10/09 07:54:34;;;;;;;;;;;;;;;10.58;68.08;102469.03;5059764;28;19955;-51
2022/10/09 07:56:59;;;;;;;;;;;;;;;10.58;68.17;102466.41;5062332;28;19925;-52
2022/10/09 07:59:25;;;;;;;;;;;;;;;10.62;68.20;102470.69;5061175;28;19932;-50
2022/10/09 08:01:50;;;;;;;;;;;;;;;10.65;68.36;102475.88;5063528;28;20873;-50
2022/10/09 08:04:15;;;;;;;;;;;;;;;10.70;68.38;102480.09;5063299;28;19921;-51
2022/10/09 08:06:41;;;;;;;;;;;;;;;10.73;68.27;102478.25;5064579;28;19920;-51
2022/10/09 08:09:06;;;;;;;;;;;;;;;10.77;68.25;102484.28;5067704;28;19924;-51
2022/10/09 08:11:31;;;;;;;;;;;;;;;10.82;68.44;102482.34;5065892;28;20288;-52
2022/10/09 08:13:57;;;;;;;;;;;;;;;10.85;68.43;102481.41;5063318;28;20365;-51
2022/10/09 08:16:23;;;;;;;;;;;;;;;10.89;68.38;102476.00;5061604;28;20292;-51
2022/10/09 08:18:48;;;;;;;;;;;;;;;10.95;68.45;102486.34;5048345;28;19982;-51
2022/10/09 08:21:14;;;;;;;;;;;;;;;11.00;68.37;102490.59;5065513;28;19932;-51
2022/10/09 08:23:40;;;;;;;;;;;;;;;11.04;68.36;102492.22;5061262;28;19931;-51
2022/10/09 08:26:16;;;;;;;;;;;;;;;11.08;68.31;102499.97;5068006;28;19924;-51
2022/10/09 08:28:41;;;;;;;;;;;;;;;11.10;68.48;102503.44;5068199;28;20027;-52
2022/10/09 08:31:10;;;;;;;;;;;;;;;11.12;68.25;102498.97;5067274;28;20007;-53
2022/10/09 08:33:36;;;;;;;;;;;;;;;11.14;68.47;102498.91;5062804;28;19929;-52
2022/10/09 08:36:06;;;;;;;;;;;;;;;11.16;68.48;102502.38;5061395;28;20001;-51
2022/10/09 08:38:31;;;;;;;;;;;;;;;11.16;68.29;102505.00;5062394;28;20400;-52
2022/10/09 08:41:00;;;;;;;;;;;;;;;11.16;68.36;102506.78;5067632;28;20027;-54
2022/10/09 08:43:29;;;;;;;;;;;;;;;11.16;68.31;102507.63;5058850;28;19977;-53
2022/10/09 08:45:55;;;;;;;;;;;;;;;11.16;68.36;102506.78;5057406;28;19935;-51
2022/10/09 08:48:24;;;;;;;;;;;;;;;11.15;68.46;102508.56;5056396;28;19929;-54
2022/10/09 08:50:52;;;;;;;;;;;;;;;11.16;68.69;102506.78;5055792;28;19923;-54
2022/10/09 08:53:37;;;;;;;;;;;;;;;11.15;68.65;102507.72;5064447;28;20365;-54
2022/10/09 08:56:03;;;;;;;;;;;;;;;11.16;68.62;102494.47;5061793;28;20019;-53
2022/10/09 08:58:33;;;;;;;;;;;;;;;11.17;68.88;102509.38;5061992;28;19924;-52
2022/10/09 09:01:04;;;;;;;;;;;;;;;11.20;68.81;102505.75;5058454;28;20412;-54
2022/10/09 09:03:38;;;;;;;;;;;;;;;11.21;68.94;102508.38;5064369;28;19920;-56
2022/10/09 09:06:09;;;;;;;;;;;;;;;11.24;68.84;102505.63;5060311;28;20056;-53
2022/10/09 09:08:51;;;;;;;;;;;;;;;11.30;69.01;102509.84;5053313;28;20039;-52
2022/10/09 09:11:35;;;;;;;;;;;;;;;11.32;68.95;102517.69;5054440;28;20016;-52
2022/10/09 09:14:03;;;;;;;;;;;;;;;11.37;68.96;102511.34;5055884;28;19924;-54
2022/10/09 09:16:41;;;;;;;;;;;;;;;11.38;68.87;102509.59;5053427;28;20278;-52
2022/10/09 09:19:24;;;;;;;;;;;;;;;11.41;69.02;102512.13;5055305;28;19932;-52
2022/10/09 09:21:50;;;;;;;;;;;;;;;11.46;69.09;102504.91;5051497;28;19921;-53
2022/10/09 09:24:17;;;;;;;;;;;;;;;11.50;69.03;102511.81;5050570;28;19932;-53
2022/10/09 09:26:44;;;;;;;;;;;;;;;11.54;69.08;102510.81;5052583;28;19966;-54
2022/10/09 09:29:11;;;;;;;;;;;;;;;11.60;69.07;102504.47;5059374;28;19927;-52
2022/10/09 09:31:36;;;;;;;;;;;;;;;11.64;69.23;102507.84;5045073;28;20381;-52
2022/10/09 09:34:28;;;;;;;;;;;;;;;11.70;69.00;102508.50;5052572;28;19932;-53
2022/10/09 09:36:56;;;;;;;;;;;;;;;11.76;68.91;102507.44;5056124;28;19985;-55
2022/10/09 09:39:31;;;;;;;;;;;;;;;11.82;69.21;102503.72;5047825;28;19932;-52
2022/10/09 09:42:06;;;;;;;;;;;;;;;11.88;69.06;102507.00;5051098;28;19931;-52
2022/10/09 09:44:32;;;;;;;;;;;;;;;11.96;69.12;102511.16;5053477;28;20381;-53
2022/10/09 09:46:58;;;;;;;;;;;;;;;11.99;68.86;102511.09;5055812;28;19983;-53
2022/10/09 09:49:26;;;;;;;;;;;;;;;12.02;68.81;102513.63;5058505;28;20063;-52
2022/10/09 09:51:52;;;;;;;;;;;;;;;12.03;69.01;102508.28;5050415;28;19930;-54
2022/10/09 09:54:20;;;;;;;;;;;;;;;12.05;69.11;102508.22;5048033;28;20029;-51
2022/10/09 09:56:46;;;;;;;;;;;;;;;12.11;69.05;102505.38;5051522;28;20039;-52
2022/10/09 09:59:44;;;;;;;;;;;;;;;12.17;68.98;102506.91;5047219;28;19939;-52
2022/10/09 10:02:11;;;;;;;;;;;;;;;12.22;69.13;102509.38;5012209;28;20252;-53
2022/10/09 10:04:37;;;;;;;;;;;;;;;12.27;69.12;102507.44;5051322;28;19962;-54
2022/10/09 10:07:04;;;;;;;;;;;;;;;12.31;69.07;102509.06;5050727;28;21016;-53
2022/10/09 10:09:30;;;;;;;;;;;;;;;12.37;68.92;102503.53;5057000;28;20304;-53
2022/10/09 10:11:57;;;;;;;;;;;;;;;12.44;68.88;102498.88;5056806;28;20468;-54
2022/10/09 10:14:22;;;;;;;;;;;;;;;12.51;68.89;102505.66;5058500;28;19921;-52
2022/10/09 10:16:49;;;;;;;;;;;;;;;12.56;68.73;102501.06;5051171;28;19932;-55
2022/10/09 10:19:28;;;;;;;;;;;;;;;12.64;68.49;102490.19;5052380;28;20401;-53
2022/10/09 10:21:57;;;;;;;;;;;;;;;12.68;68.57;102497.09;5056106;28;19924;-56
2022/10/09 10:24:26;;;;;;;;;;;;;;;12.68;68.47;102491.81;5057259;28;19974;-57
2022/10/09 10:26:59;;;;;;;;;;;;;;;12.73;68.40;102492.50;5053863;28;19928;-55
2022/10/09 10:29:30;;;;;;;;;;;;;;;12.78;68.39;102494.97;5057147;28;19931;-58
2022/10/09 10:32:01;;;;;;;;;;;;;;;12.85;68.43;102495.56;5053992;28;20042;-55
2022/10/09 10:34:44;;;;;;;;;;;;;;;12.88;68.48;102490.19;5054193;28;20249;-55
2022/10/09 10:37:13;;;;;;;;;;;;;;;12.92;68.39;102494.44;5057726;28;21256;-55
2022/10/09 10:39:44;;;;;;;;;;;;;;;12.98;68.25;102493.31;5052957;28;19924;-51
2022/10/09 10:42:15;;;;;;;;;;;;;;;13.03;68.09;102492.22;5054922;28;20010;-52
2022/10/09 10:44:59;;;;;;;;;;;;;;;13.08;67.82;102495.50;5061402;28;20386;-54
2022/10/09 10:47:27;;;;;;;;;;;;;;;13.13;67.62;102491.81;5053064;28;19924;-54
2022/10/09 10:49:53;;;;;;;;;;;;;;;13.18;67.59;102500.44;5052399;28;19930;-52
2022/10/09 10:52:24;;;;;;;;;;;;;;;13.23;67.20;102482.63;5053792;28;19928;-52
2022/10/09 10:54:49;;;;;;;;;;;;;;;13.29;66.94;102485.00;5054499;28;20667;-52
2022/10/09 10:57:18;;;;;;;;;;;;;;;13.33;66.83;102494.53;5053877;28;19935;-52
2022/10/09 10:59:46;;;;;;;;;;;;;;;13.36;66.69;102482.94;5055464;28;19924;-54
2022/10/09 11:02:34;;;;;;;;;;;;;;;13.39;66.52;102488.97;5060648;28;19924;-54
2022/10/09 11:05:09;;;;;;;;;;;;;;;13.45;66.47;102481.75;5060142;28;19925;-51
2022/10/09 11:07:46;;;;;;;;;;;;;;;13.49;66.25;102483.34;5058953;28;20027;-51
2022/10/09 11:10:31;;;;;;;;;;;;;;;13.53;66.11;102474.34;5040374;28;19925;-53
2022/10/09 11:13:03;;;;;;;;;;;;;;;13.57;65.75;102482.09;5048424;28;20305;-51
2022/10/09 11:15:36;;;;;;;;;;;;;;;13.62;65.69;102468.66;5060725;28;20260;-51
2022/10/09 11:18:07;;;;;;;;;;;;;;;13.66;65.59;102469.38;5059515;28;19928;-53
2022/10/09 11:20:43;;;;;;;;;;;;;;;13.70;65.37;102471.81;5061748;28;19968;-53
2022/10/09 11:23:11;;;;;;;;;;;;;;;13.69;64.96;102472.75;5059018;28;19960;-52
2022/10/09 11:25:39;;;;;;;;;;;;;;;13.74;64.82;102471.69;5058366;28;20001;-52
2022/10/09 11:28:10;;;;;;;;;;;;;;;13.76;64.64;102464.56;5055347;28;20650;-53
2022/10/09 11:30:38;;;;;;;;;;;;;;;13.79;64.71;102469.72;5060120;28;20062;-52
2022/10/09 11:33:13;;;;;;;;;;;;;;;13.83;64.66;102471.31;5051333;28;19986;-51
2022/10/09 11:35:41;;;;;;;;;;;;;;;13.89;64.28;102467.53;5063294;28;19920;-52
2022/10/09 11:38:20;;;;;;;;;;;;;;;13.95;64.06;102468.13;5056425;28;19925;-53
2022/10/09 11:40:46;;;;;;;;;;;;;;;14.00;63.81;102463.47;5055445;28;19928;-53
2022/10/09 11:43:20;;;;;;;;;;;;;;;14.05;63.85;102462.41;5058104;28;20785;-51
2022/10/09 11:45:50;;;;;;;;;;;;;;;14.10;63.68;102447.19;5055545;28;20328;-51
2022/10/09 11:48:21;;;;;;;;;;;;;;;14.16;63.42;102457.47;5057154;28;19928;-51
2022/10/09 11:50:59;;;;;;;;;;;;;;;14.18;63.16;102450.31;5064746;28;19916;-51
2022/10/09 11:53:27;;;;;;;;;;;;;;;14.22;63.09;102454.56;5058301;28;19920;-51
2022/10/09 11:56:18;;;;;;;;;;;;;;;14.26;62.96;102448.19;5059196;28;19928;-51
2022/10/09 11:58:53;;;;;;;;;;;;;;;14.31;62.80;102440.03;5051246;28;19991;-50
2022/10/09 12:01:23;;;;;;;;;;;;;;;14.34;62.70;102437.25;5058020;28;19939;-51
2022/10/09 12:03:58;;;;;;;;;;;;;;;14.37;62.34;102433.59;5060805;28;19920;-49
2022/10/09 12:06:24;;;;;;;;;;;;;;;14.40;62.20;102434.28;5066769;28;20351;-51
2022/10/09 12:08:57;;;;;;;;;;;;;;;14.43;62.14;102428.03;5057500;28;20234;-50
2022/10/09 12:11:23;;;;;;;;;;;;;;;14.47;61.96;102430.44;5053625;28;19929;-52
2022/10/09 12:13:53;;;;;;;;;;;;;;;14.53;61.76;102424.00;5055257;28;20013;-53
2022/10/09 12:16:30;;;;;;;;;;;;;;;14.56;61.73;102423.84;5051778;28;19998;-50
2022/10/09 12:18:57;;;;;;;;;;;;;;;14.59;61.77;102423.72;5055023;28;19929;-52
2022/10/09 12:21:43;;;;;;;;;;;;;;;14.63;60.80;102419.13;5047872;28;19925;-52
2022/10/09 12:24:15;;;;;;;;;;;;;;;14.61;60.58;102424.47;5024599;28;19924;-52
2022/10/09 12:26:41;;;;;;;;;;;;;;;14.62;60.30;102423.53;5056050;28;20142;-50
2022/10/09 12:29:13;;;;;;;;;;;;;;;14.62;60.27;102420.88;5053443;28;20438;-50
2022/10/09 12:31:40;;;;;;;;;;;;;;;14.65;60.22;102422.56;5054031;28;20293;-52
2022/10/09 12:34:17;;;;;;;;;;;;;;;14.67;60.01;102414.53;5049288;28;19927;-51
2022/10/09 12:36:42;;;;;;;;;;;;;;;14.68;60.15;102410.97;5045604;28;19920;-53
2022/10/09 12:39:17;;;;;;;;;;;;;;;14.68;60.04;102403.03;5052431;28;19994;-52
2022/10/09 12:41:44;;;;;;;;;;;;;;;14.69;59.98;102396.78;5060460;28;21444;-51